Time;durP1;ratioP1;P1;durP2;ratioP2;P2;SDS_P1;SDS_P2;PMS_P1;PMS_P2;Temp;Humidity;BMP_temperature;BMP_pressure;BME280_temperature;BME280_humidity;BME280_pressure;Samples;Min_cycle;Max_cycle;Signal;HPM_P1;HPM_P2
2021/11/07 00:04:09;;;;;;;4.77;3.53;;;10.20;99.90;;;;;;5050973;28;20217;-79
2021/11/07 00:06:38;;;;;;;6.60;3.70;;;10.20;99.90;;;;;;5051393;28;20290;-79
2021/11/07 00:09:12;;;;;;;7.07;3.30;;;10.20;99.90;;;;;;5051192;28;20628;-79
2021/11/07 00:11:41;;;;;;;5.13;3.40;;;10.20;99.90;;;;;;5042627;28;20198;-79
2021/11/07 00:14:09;;;;;;;4.73;3.60;;;10.20;99.90;;;;;;5043999;28;20206;-79
2021/11/07 00:16:38;;;;;;;7.53;3.53;;;10.20;99.90;;;;;;5034738;28;20207;-78
2021/11/07 00:19:12;;;;;;;4.80;3.70;;;10.20;99.90;;;;;;5040398;28;20199;-79
2021/11/07 00:21:46;;;;;;;4.00;3.60;;;10.20;99.90;;;;;;5040388;28;20199;-79
2021/11/07 00:24:16;;;;;;;6.57;3.57;;;10.20;99.90;;;;;;5041865;28;20684;-79
2021/11/07 00:26:52;;;;;;;6.23;4.17;;;10.20;99.90;;;;;;5043389;28;20203;-79
2021/11/07 00:29:22;;;;;;;4.93;3.00;;;10.20;99.90;;;;;;5042631;28;20206;-79
2021/11/07 00:31:53;;;;;;;4.17;3.50;;;10.20;99.90;;;;;;5037261;28;20204;-78
2021/11/07 00:37:12;;;;;;;5.77;3.53;;;10.20;99.90;;;;;;5033840;28;20195;-79
2021/11/07 00:39:46;;;;;;;4.77;3.20;;;10.20;99.90;;;;;;5043955;28;20202;-78
2021/11/07 00:42:18;;;;;;;5.17;3.33;;;10.20;99.90;;;;;;5036888;28;20260;-72
2021/11/07 00:44:51;;;;;;;3.97;2.77;;;10.30;99.90;;;;;;5034585;28;20309;-72
2021/11/07 00:47:33;;;;;;;5.80;3.33;;;10.40;99.90;;;;;;5036545;28;20228;-72
2021/11/07 00:50:05;;;;;;;6.20;3.60;;;10.40;99.90;;;;;;5035405;28;20377;-72
2021/11/07 00:52:36;;;;;;;4.53;3.40;;;10.40;99.90;;;;;;5036035;28;20349;-72
2021/11/07 00:55:10;;;;;;;4.17;3.77;;;10.40;99.90;;;;;;5037850;28;20195;-72
2021/11/07 00:57:49;;;;;;;7.30;4.30;;;10.50;99.90;;;;;;5035065;28;20208;-72
2021/11/07 01:00:24;;;;;;;8.20;4.73;;;10.50;99.90;;;;;;5064634;28;20198;-72
2021/11/07 01:02:57;;;;;;;3.93;3.30;;;10.50;99.90;;;;;;5060726;28;20216;-72
2021/11/07 01:05:27;;;;;;;6.47;3.50;;;10.50;99.90;;;;;;5065111;28;20650;-72
2021/11/07 01:07:54;;;;;;;6.57;3.50;;;10.50;99.90;;;;;;5054788;28;20215;-72
2021/11/07 01:10:23;;;;;;;3.90;2.87;;;10.50;99.90;;;;;;5037713;28;20206;-72
2021/11/07 01:12:51;;;;;;;4.20;2.87;;;10.50;99.90;;;;;;5067804;28;20616;-72
2021/11/07 01:15:19;;;;;;;4.70;2.90;;;10.40;99.90;;;;;;5065202;28;20269;-72
2021/11/07 01:17:46;;;;;;;3.80;2.90;;;10.40;99.90;;;;;;5065475;28;20198;-72
2021/11/07 01:20:14;;;;;;;4.90;3.17;;;10.50;99.90;;;;;;5066445;28;20199;-72
2021/11/07 01:22:51;;;;;;;3.70;2.90;;;10.50;99.90;;;;;;5049634;28;20207;-72
2021/11/07 01:25:19;;;;;;;4.77;3.07;;;10.50;99.90;;;;;;5036426;28;20684;-72
2021/11/07 01:27:47;;;;;;;4.80;3.00;;;10.50;99.90;;;;;;5051249;28;20226;-72
2021/11/07 01:30:21;;;;;;;5.27;3.20;;;10.50;99.90;;;;;;5051911;28;20199;-72
2021/11/07 01:32:52;;;;;;;3.97;2.60;;;10.50;99.90;;;;;;5050777;28;20202;-72
2021/11/07 01:35:22;;;;;;;5.27;3.40;;;10.50;99.90;;;;;;5051787;28;20199;-72
2021/11/07 01:37:57;;;;;;;5.40;2.90;;;10.40;99.90;;;;;;5063652;28;20294;-72
2021/11/07 01:40:27;;;;;;;5.53;3.17;;;10.40;99.90;;;;;;5050151;28;20202;-72
2021/11/07 01:42:56;;;;;;;3.67;2.90;;;10.30;99.90;;;;;;5056730;28;20290;-72
2021/11/07 01:45:25;;;;;;;3.97;3.20;;;10.30;99.90;;;;;;5055457;28;20215;-72
2021/11/07 01:48:01;;;;;;;2.97;2.70;;;10.30;99.90;;;;;;5066589;28;20301;-72
2021/11/07 01:50:28;;;;;;;5.17;2.53;;;10.30;99.90;;;;;;5055802;28;20206;-72
2021/11/07 01:53:04;;;;;;;6.43;3.60;;;10.30;99.90;;;;;;5066110;28;20198;-72
2021/11/07 01:55:31;;;;;;;4.80;3.57;;;10.30;99.90;;;;;;5071058;28;20555;-72
2021/11/07 01:58:00;;;;;;;6.17;4.80;;;10.30;99.90;;;;;;5071914;28;20561;-72
2021/11/07 02:00:30;;;;;;;4.10;3.40;;;10.30;99.90;;;;;;5059902;28;20206;-72
2021/11/07 02:02:58;;;;;;;5.00;4.03;;;10.20;99.90;;;;;;5061061;28;20605;-72
2021/11/07 02:05:25;;;;;;;5.87;4.40;;;10.20;99.90;;;;;;5055183;28;20226;-72
2021/11/07 02:07:52;;;;;;;5.60;4.03;;;10.20;99.90;;;;;;5054707;28;20206;-72
2021/11/07 02:10:19;;;;;;;6.70;4.90;;;10.10;99.90;;;;;;5054703;28;20203;-72
2021/11/07 02:12:48;;;;;;;6.87;4.70;;;10.20;99.90;;;;;;5068781;28;20657;-72
2021/11/07 02:15:19;;;;;;;6.70;4.03;;;10.20;99.90;;;;;;5058180;28;20570;-71
2021/11/07 02:17:47;;;;;;;6.23;4.10;;;10.20;99.90;;;;;;5061781;28;20202;-72
2021/11/07 02:20:21;;;;;;;5.80;3.87;;;10.10;99.90;;;;;;5054910;28;20199;-72
2021/11/07 02:22:48;;;;;;;6.77;4.23;;;10.10;99.90;;;;;;5050958;28;20206;-72
2021/11/07 02:25:15;;;;;;;4.70;3.70;;;10.10;99.90;;;;;;5050731;28;20264;-72
2021/11/07 02:27:42;;;;;;;4.27;3.17;;;10.20;99.90;;;;;;5063513;28;20247;-72
2021/11/07 02:30:12;;;;;;;5.07;3.87;;;10.10;99.90;;;;;;5054532;28;20215;-72
2021/11/07 02:32:39;;;;;;;5.97;4.20;;;10.10;99.90;;;;;;5055292;28;20213;-72
2021/11/07 02:35:06;;;;;;;9.30;3.50;;;10.00;99.90;;;;;;5054696;28;20199;-72
2021/11/07 02:37:35;;;;;;;3.93;2.60;;;10.00;99.90;;;;;;5053945;28;20534;-71
2021/11/07 02:40:05;;;;;;;3.50;2.20;;;10.00;99.90;;;;;;5054311;28;20203;-71
2021/11/07 02:42:33;;;;;;;3.03;2.73;;;10.00;99.90;;;;;;5054831;28;20217;-71
2021/11/07 02:45:00;;;;;;;5.10;3.63;;;9.90;99.90;;;;;;5054723;28;20242;-72
2021/11/07 02:47:27;;;;;;;3.37;3.07;;;9.90;99.90;;;;;;5053811;28;20725;-72
2021/11/07 02:49:54;;;;;;;3.83;3.50;;;9.90;99.90;;;;;;5054205;28;20546;-72
2021/11/07 02:52:21;;;;;;;3.97;2.70;;;9.90;99.90;;;;;;5048506;28;20207;-72
2021/11/07 02:54:50;;;;;;;4.83;3.20;;;9.80;99.90;;;;;;5042049;28;20191;-72
2021/11/07 02:57:21;;;;;;;3.23;2.90;;;9.80;99.90;;;;;;5054293;28;20202;-72
2021/11/07 02:59:55;;;;;;;3.60;2.17;;;9.80;99.90;;;;;;5054092;28;20194;-72
2021/11/07 03:02:22;;;;;;;3.57;2.07;;;9.80;99.90;;;;;;5070365;28;20740;-72
2021/11/07 03:04:49;;;;;;;3.03;2.67;;;9.80;99.90;;;;;;5067335;28;20211;-72
2021/11/07 03:07:17;;;;;;;4.57;3.40;;;9.80;99.90;;;;;;5047445;28;20657;-72
2021/11/07 03:09:43;;;;;;;3.77;3.40;;;9.90;99.90;;;;;;5040991;28;20281;-72
2021/11/07 03:12:12;;;;;;;7.53;5.00;;;9.90;99.90;;;;;;5068527;28;20213;-72
2021/11/07 03:14:43;;;;;;;6.43;4.40;;;9.90;99.90;;;;;;5069924;28;20289;-72
2021/11/07 03:17:12;;;;;;;9.47;4.43;;;9.90;99.90;;;;;;5054070;28;20199;-72
2021/11/07 03:19:40;;;;;;;5.20;4.70;;;9.90;99.90;;;;;;5054026;28;20578;-72
2021/11/07 03:22:10;;;;;;;8.07;5.50;;;9.90;99.90;;;;;;5061370;28;20227;-72
2021/11/07 03:24:38;;;;;;;7.17;4.40;;;9.90;99.90;;;;;;5045948;28;20225;-72
2021/11/07 03:27:12;;;;;;;5.20;3.97;;;9.90;99.90;;;;;;5053823;28;20277;-72
2021/11/07 03:29:42;;;;;;;7.77;3.83;;;10.00;99.90;;;;;;5054445;28;20211;-72
2021/11/07 03:32:15;;;;;;;6.67;4.20;;;10.00;99.90;;;;;;5053687;28;20657;-72
2021/11/07 03:34:44;;;;;;;4.20;3.70;;;10.00;99.90;;;;;;5053818;28;20195;-72
2021/11/07 03:37:13;;;;;;;3.90;3.50;;;10.00;99.90;;;;;;5053426;28;20199;-72
2021/11/07 03:39:41;;;;;;;6.13;4.07;;;10.10;99.90;;;;;;5053451;28;20573;-72
2021/11/07 03:42:11;;;;;;;4.63;3.40;;;10.10;99.90;;;;;;5051361;28;20858;-72
2021/11/07 03:44:40;;;;;;;5.17;3.40;;;10.00;99.90;;;;;;5058681;28;20817;-72
2021/11/07 03:47:08;;;;;;;3.50;2.87;;;10.10;99.90;;;;;;5053362;28;20215;-72
2021/11/07 03:49:35;;;;;;;2.97;2.60;;;10.10;99.90;;;;;;5062058;28;20190;-72
2021/11/07 03:52:02;;;;;;;2.73;2.50;;;10.10;99.90;;;;;;5051645;28;20285;-72
2021/11/07 03:54:30;;;;;;;3.37;2.67;;;10.10;99.90;;;;;;5052426;28;20190;-72
2021/11/07 03:56:59;;;;;;;4.20;3.17;;;10.10;99.90;;;;;;5053533;28;20282;-72
2021/11/07 03:59:26;;;;;;;3.00;2.70;;;10.10;99.90;;;;;;5060880;28;20549;-72
2021/11/07 04:01:55;;;;;;;3.27;2.87;;;10.10;99.90;;;;;;5055141;28;20658;-72
2021/11/07 04:04:22;;;;;;;2.40;1.97;;;10.10;99.90;;;;;;5052576;28;20194;-72
2021/11/07 04:06:50;;;;;;;2.40;2.20;;;10.10;99.90;;;;;;5052757;28;20199;-72
2021/11/07 04:09:17;;;;;;;2.83;2.40;;;10.20;99.90;;;;;;5057027;28;20208;-72
2021/11/07 04:11:44;;;;;;;2.20;2.00;;;10.20;99.90;;;;;;5061343;28;20191;-72
2021/11/07 04:14:13;;;;;;;1.90;1.80;;;10.20;99.90;;;;;;5057914;28;20206;-72
2021/11/07 04:16:40;;;;;;;1.37;1.27;;;10.30;99.90;;;;;;5073183;28;20611;-72
2021/11/07 04:19:10;;;;;;;2.37;1.33;;;10.30;99.90;;;;;;5066319;28;20202;-71
2021/11/07 04:21:38;;;;;;;1.93;1.83;;;10.30;99.90;;;;;;5070241;28;20293;-72
2021/11/07 04:24:05;;;;;;;2.57;1.90;;;10.30;99.90;;;;;;5053393;28;20195;-72
2021/11/07 04:26:32;;;;;;;2.47;1.70;;;10.30;99.90;;;;;;5052216;28;20222;-72
2021/11/07 04:28:59;;;;;;;2.77;1.80;;;10.30;99.90;;;;;;5055800;28;20547;-72
2021/11/07 04:31:26;;;;;;;1.90;1.80;;;10.30;99.90;;;;;;5072996;28;20213;-72
2021/11/07 04:33:53;;;;;;;2.57;2.37;;;10.30;99.90;;;;;;5056220;28;20214;-72
2021/11/07 04:36:22;;;;;;;2.63;2.43;;;10.30;99.90;;;;;;5063640;28;20230;-71
2021/11/07 04:38:48;;;;;;;3.23;2.60;;;10.30;99.90;;;;;;5051754;28;20203;-71
2021/11/07 04:41:18;;;;;;;2.60;2.40;;;10.30;99.90;;;;;;5047595;28;20207;-72
2021/11/07 04:43:47;;;;;;;2.90;2.50;;;10.30;99.90;;;;;;5049530;28;20294;-72
2021/11/07 04:46:14;;;;;;;4.60;2.93;;;10.30;99.90;;;;;;5052584;28;20714;-72
2021/11/07 04:48:42;;;;;;;3.80;3.20;;;10.30;99.90;;;;;;5051908;28;20653;-72
2021/11/07 04:51:09;;;;;;;5.30;3.30;;;10.10;99.90;;;;;;5052229;28;20205;-72
2021/11/07 04:53:39;;;;;;;3.57;3.27;;;10.10;99.90;;;;;;5044319;28;20195;-72
2021/11/07 04:56:06;;;;;;;4.50;3.20;;;10.10;99.90;;;;;;5072517;28;20259;-72
2021/11/07 04:58:33;;;;;;;6.27;3.90;;;10.10;99.90;;;;;;5058277;28;20206;-72
2021/11/07 05:01:00;;;;;;;4.53;3.97;;;10.00;99.90;;;;;;5072485;28;20202;-72
2021/11/07 05:03:28;;;;;;;5.77;4.50;;;10.00;99.90;;;;;;5066420;28;20195;-72
2021/11/07 05:05:55;;;;;;;4.43;4.03;;;9.90;99.90;;;;;;5055359;28;20805;-72
2021/11/07 05:08:23;;;;;;;5.40;4.50;;;9.90;99.90;;;;;;5051589;28;20650;-71
2021/11/07 05:10:51;;;;;;;6.13;4.97;;;9.90;99.90;;;;;;5053356;28;20203;-72
2021/11/07 05:13:19;;;;;;;6.57;4.77;;;9.90;99.90;;;;;;5051898;28;20235;-77
2021/11/07 05:15:46;;;;;;;8.43;4.97;;;9.80;99.90;;;;;;5073641;28;20209;-72
2021/11/07 05:18:13;;;;;;;5.53;4.50;;;9.80;99.90;;;;;;5060641;28;20195;-71
2021/11/07 05:20:40;;;;;;;6.20;4.83;;;9.80;99.90;;;;;;5074506;28;20238;-71
2021/11/07 05:23:07;;;;;;;5.67;4.70;;;9.80;99.90;;;;;;5060245;28;20210;-72
2021/11/07 05:25:34;;;;;;;4.77;4.20;;;9.80;99.90;;;;;;5054520;28;20685;-71
2021/11/07 05:28:02;;;;;;;5.60;4.23;;;9.80;99.90;;;;;;5055280;28;20199;-71
2021/11/07 05:30:29;;;;;;;4.70;3.83;;;9.80;99.90;;;;;;5056054;28;20202;-71
2021/11/07 05:32:56;;;;;;;3.73;3.40;;;9.80;99.90;;;;;;5055545;28;20202;-71
2021/11/07 05:35:23;;;;;;;4.40;3.70;;;9.80;99.90;;;;;;5056003;28;20195;-71
2021/11/07 05:37:51;;;;;;;4.27;3.87;;;9.70;99.90;;;;;;5055046;28;20199;-71
2021/11/07 05:40:19;;;;;;;4.40;4.00;;;9.70;99.90;;;;;;5068567;28;20202;-71
2021/11/07 05:42:47;;;;;;;5.67;4.43;;;9.70;99.90;;;;;;5067213;28;20558;-71
2021/11/07 05:45:16;;;;;;;7.33;5.10;;;9.70;99.90;;;;;;5060823;28;20210;-71
2021/11/07 05:47:44;;;;;;;7.23;5.83;;;9.70;99.90;;;;;;5054731;28;20199;-71
2021/11/07 05:50:13;;;;;;;7.50;5.63;;;9.70;99.90;;;;;;5066596;28;20285;-71
2021/11/07 05:52:41;;;;;;;8.33;6.93;;;9.70;99.90;;;;;;5068584;28;20203;-71
2021/11/07 05:55:08;;;;;;;10.43;7.17;;;9.70;99.90;;;;;;5062632;28;20200;-71
2021/11/07 05:57:35;;;;;;;9.03;7.40;;;9.70;99.90;;;;;;5054688;28;20691;-71
2021/11/07 06:00:04;;;;;;;10.70;7.23;;;9.70;99.90;;;;;;5063051;28;20197;-71
2021/11/07 06:02:32;;;;;;;8.73;6.37;;;9.70;99.90;;;;;;5055509;28;20261;-71
2021/11/07 06:04:59;;;;;;;7.43;5.73;;;9.80;99.90;;;;;;5064882;28;20531;-71
2021/11/07 06:07:26;;;;;;;6.97;5.47;;;9.80;99.90;;;;;;5054487;28;20214;-71
2021/11/07 06:09:52;;;;;;;5.77;4.80;;;9.80;99.90;;;;;;5055256;28;20203;-71
2021/11/07 06:12:19;;;;;;;6.17;4.93;;;9.80;99.90;;;;;;5056185;28;20198;-71
2021/11/07 06:14:47;;;;;;;5.20;4.10;;;9.80;99.90;;;;;;5055195;28;20581;-71
2021/11/07 06:17:14;;;;;;;5.73;3.87;;;9.80;99.90;;;;;;5055985;28;20221;-71
2021/11/07 06:19:43;;;;;;;5.50;3.93;;;9.90;99.90;;;;;;5056456;28;20558;-71
2021/11/07 06:22:10;;;;;;;5.93;3.90;;;9.90;99.90;;;;;;5061685;28;20203;-71
2021/11/07 06:24:37;;;;;;;5.07;3.30;;;9.90;99.90;;;;;;5057035;28;20226;-71
2021/11/07 06:27:05;;;;;;;8.37;3.50;;;9.90;99.90;;;;;;5056712;28;20558;-71
2021/11/07 06:29:32;;;;;;;5.07;2.63;;;9.90;99.90;;;;;;5054975;28;20716;-71
2021/11/07 06:32:00;;;;;;;3.27;2.50;;;9.90;99.90;;;;;;5067069;28;20194;-71
2021/11/07 06:34:27;;;;;;;5.43;2.20;;;10.00;99.90;;;;;;5056422;28;20234;-71
2021/11/07 06:36:56;;;;;;;6.50;2.67;;;9.90;99.90;;;;;;5054946;28;20209;-71
2021/11/07 06:39:23;;;;;;;7.20;2.40;;;9.90;99.90;;;;;;5055585;28;20234;-71
2021/11/07 06:41:50;;;;;;;6.10;2.70;;;9.90;99.90;;;;;;5054197;28;20257;-71
2021/11/07 06:44:18;;;;;;;6.63;3.20;;;9.80;99.90;;;;;;5046875;28;20645;-71
2021/11/07 06:46:44;;;;;;;6.53;2.60;;;9.80;99.90;;;;;;5047784;28;20225;-71
2021/11/07 06:49:14;;;;;;;5.40;2.30;;;9.70;99.90;;;;;;5061522;28;20199;-71
2021/11/07 06:51:42;;;;;;;10.53;3.10;;;9.70;99.90;;;;;;5053578;28;20638;-71
2021/11/07 06:54:12;;;;;;;5.30;2.37;;;9.60;99.90;;;;;;5051108;28;20214;-71
2021/11/07 06:56:39;;;;;;;7.27;3.00;;;9.60;99.90;;;;;;5049837;28;20621;-71
2021/11/07 06:59:06;;;;;;;13.80;3.97;;;9.60;99.90;;;;;;5052380;28;20370;-71
2021/11/07 07:01:36;;;;;;;7.67;2.73;;;9.60;99.90;;;;;;5053534;28;20194;-71
2021/11/07 07:04:03;;;;;;;6.07;2.20;;;9.50;99.90;;;;;;5054175;28;20285;-71
2021/11/07 07:06:31;;;;;;;4.83;2.40;;;9.60;99.90;;;;;;5067922;28;20233;-71
2021/11/07 07:09:02;;;;;;;7.43;2.50;;;9.60;99.90;;;;;;5053034;28;20199;-71
2021/11/07 07:11:33;;;;;;;5.23;3.03;;;9.50;99.90;;;;;;5054343;28;20207;-71
2021/11/07 07:14:03;;;;;;;3.73;2.33;;;9.50;99.90;;;;;;5053610;28;20210;-71
2021/11/07 07:16:40;;;;;;;3.47;2.50;;;9.50;99.90;;;;;;5046530;28;20201;-72
2021/11/07 07:19:18;;;;;;;4.23;3.00;;;9.50;99.90;;;;;;5047000;28;20323;-71
2021/11/07 07:21:54;;;;;;;3.23;2.83;;;9.60;99.90;;;;;;5043034;28;20206;-72
2021/11/07 07:24:43;;;;;;;2.77;2.50;;;9.60;99.90;;;;;;5043673;28;20289;-71
2021/11/07 07:35:32;;;;;;;5.70;4.40;;;9.80;99.90;;;;;;5100390;27;20569;-70
2021/11/07 07:37:59;;;;;;;6.40;4.47;;;9.80;99.90;;;;;;5085129;28;20213;-71
2021/11/07 07:40:27;;;;;;;7.07;4.30;;;9.90;99.90;;;;;;5081344;28;20217;-71
2021/11/07 07:42:54;;;;;;;5.57;4.47;;;10.00;99.90;;;;;;5085175;28;20214;-70
2021/11/07 07:45:21;;;;;;;7.20;4.27;;;10.00;99.90;;;;;;5084634;28;20256;-71
2021/11/07 07:47:49;;;;;;;7.53;4.30;;;10.10;99.90;;;;;;5085747;28;20259;-70
2021/11/07 07:50:19;;;;;;;4.17;3.70;;;10.10;99.90;;;;;;5085199;28;20224;-70
2021/11/07 07:52:48;;;;;;;7.67;3.53;;;10.00;99.90;;;;;;5084903;28;20323;-70
2021/11/07 07:55:16;;;;;;;7.10;3.40;;;10.00;99.90;;;;;;5090102;28;20578;-70
2021/11/07 07:57:45;;;;;;;12.90;3.70;;;10.10;99.90;;;;;;5086334;28;20203;-70
2021/11/07 08:00:14;;;;;;;11.20;4.20;;;10.10;99.90;;;;;;5086679;28;20297;-70
2021/11/07 08:02:41;;;;;;;6.23;3.50;;;10.00;99.90;;;;;;5084921;28;20682;-70
2021/11/07 08:05:10;;;;;;;12.97;4.13;;;10.10;99.90;;;;;;5088980;28;20205;-69
2021/11/07 08:07:37;;;;;;;8.63;4.07;;;10.10;99.90;;;;;;5085345;28;20359;-70
2021/11/07 08:10:06;;;;;;;10.27;3.93;;;10.10;99.90;;;;;;5085533;28;20205;-70
2021/11/07 08:12:33;;;;;;;7.57;3.77;;;10.10;99.90;;;;;;5085648;28;20213;-70
2021/11/07 08:15:03;;;;;;;7.63;3.23;;;10.10;99.90;;;;;;5086076;28;20233;-70
2021/11/07 08:17:30;;;;;;;10.90;3.57;;;10.10;99.90;;;;;;5078358;28;20740;-70
2021/11/07 08:19:57;;;;;;;7.47;3.23;;;10.10;99.90;;;;;;5085231;28;20709;-69
2021/11/07 08:22:24;;;;;;;9.87;3.80;;;10.20;99.90;;;;;;5086073;28;20221;-69
2021/11/07 08:24:51;;;;;;;9.57;3.77;;;10.30;99.90;;;;;;5081129;28;20202;-69
2021/11/07 08:27:19;;;;;;;8.07;3.60;;;10.70;99.90;;;;;;5087844;28;20701;-69
2021/11/07 08:29:51;;;;;;;9.70;5.80;;;11.00;99.90;;;;;;5084473;28;20206;-70
2021/11/07 08:32:19;;;;;;;8.40;4.10;;;10.90;99.90;;;;;;5089247;28;20563;-69
2021/11/07 08:34:46;;;;;;;6.83;3.40;;;10.90;99.90;;;;;;5084931;28;20222;-69
2021/11/07 08:37:15;;;;;;;6.47;3.40;;;10.90;99.90;;;;;;5084081;28;20239;-69
2021/11/07 08:39:46;;;;;;;9.33;4.00;;;10.90;99.90;;;;;;5084459;28;20210;-69
2021/11/07 08:42:16;;;;;;;8.13;3.63;;;10.90;99.90;;;;;;5083043;28;20790;-69
2021/11/07 09:01:24;;;;;;;9.27;3.37;;;11.00;99.90;;;;;;5076790;28;20286;-69
2021/11/07 09:03:55;;;;;;;14.33;4.00;;;11.00;99.90;;;;;;5071769;28;20807;-69
2021/11/07 09:09:09;;;;;;;12.37;4.27;;;11.00;99.90;;;;;;5066304;28;20416;-69
2021/11/07 09:11:36;;;;;;;12.53;3.87;;;11.00;99.90;;;;;;5070402;28;20214;-69
2021/11/07 09:14:03;;;;;;;16.67;3.63;;;11.00;99.90;;;;;;5071106;28;20218;-69
2021/11/07 09:16:32;;;;;;;14.63;3.70;;;11.00;99.90;;;;;;5070503;28;20826;-69
2021/11/07 09:19:00;;;;;;;14.10;4.70;;;10.90;99.90;;;;;;5068107;28;20268;-69
2021/11/07 09:21:31;;;;;;;10.73;3.73;;;11.00;99.90;;;;;;5068637;28;20214;-69
2021/11/07 09:24:02;;;;;;;12.17;4.20;;;11.00;99.90;;;;;;5070019;28;20264;-69
2021/11/07 09:26:33;;;;;;;11.83;3.67;;;11.00;99.90;;;;;;5070306;28;20277;-69
2021/11/07 09:29:03;;;;;;;12.50;3.70;;;11.00;99.90;;;;;;5070351;28;20226;-69
2021/11/07 09:34:21;;;;;;;15.10;5.00;;;11.00;99.90;;;;;;5067022;28;20312;-69
2021/11/07 09:36:54;;;;;;;12.93;3.53;;;11.00;99.90;;;;;;5069519;28;20549;-69
2021/11/07 09:39:29;;;;;;;13.60;3.93;;;11.00;99.90;;;;;;5069212;28;20214;-69
2021/11/07 09:42:15;;;;;;;12.93;4.40;;;11.00;99.90;;;;;;5071531;28;20217;-69
2021/11/07 09:44:43;;;;;;;12.40;3.90;;;11.00;99.90;;;;;;5068753;28;20203;-69
2021/11/07 09:47:13;;;;;;;9.83;3.97;;;11.00;99.90;;;;;;5072096;28;20206;-69
2021/11/07 09:49:47;;;;;;;13.50;4.50;;;10.90;99.90;;;;;;5069361;28;20234;-69
2021/11/07 09:52:20;;;;;;;13.80;4.50;;;10.90;99.90;;;;;;5071174;28;20219;-69
2021/11/07 09:54:51;;;;;;;14.40;5.47;;;10.90;99.90;;;;;;5063235;28;20225;-69
2021/11/07 09:57:21;;;;;;;15.20;5.50;;;10.80;99.90;;;;;;5068116;28;20288;-69
2021/11/07 09:59:53;;;;;;;13.20;4.87;;;10.80;99.90;;;;;;5065327;28;20719;-69
2021/11/07 10:02:23;;;;;;;15.20;4.37;;;10.80;99.90;;;;;;5070662;28;20312;-69
2021/11/07 10:04:51;;;;;;;15.60;4.97;;;10.80;99.90;;;;;;5070315;28;20826;-69
2021/11/07 10:07:21;;;;;;;16.53;5.07;;;10.80;99.90;;;;;;5069610;28;20289;-70
2021/11/07 10:09:53;;;;;;;16.27;5.30;;;10.80;99.90;;;;;;5071830;28;20238;-69
2021/11/07 10:12:23;;;;;;;12.33;4.40;;;10.80;99.90;;;;;;5067868;28;20306;-69
2021/11/07 10:14:54;;;;;;;13.97;3.50;;;10.80;99.90;;;;;;5063031;28;20222;-69
2021/11/07 10:17:35;;;;;;;12.57;3.30;;;10.70;99.90;;;;;;5063964;28;20222;-69
2021/11/07 10:20:13;;;;;;;16.93;3.60;;;10.80;99.90;;;;;;5065723;28;20778;-69
2021/11/07 10:22:41;;;;;;;9.63;3.77;;;10.80;99.90;;;;;;5069202;28;20289;-69
2021/11/07 10:25:16;;;;;;;12.07;3.10;;;10.80;99.90;;;;;;5069469;28;20289;-69
2021/11/07 10:27:47;;;;;;;12.17;3.10;;;10.70;99.90;;;;;;5065523;28;20746;-69
2021/11/07 10:30:19;;;;;;;13.90;3.20;;;10.70;99.90;;;;;;5068673;28;20202;-69
2021/11/07 10:33:06;;;;;;;9.10;2.90;;;10.80;99.90;;;;;;5065376;28;20287;-69
2021/11/07 10:41:42;;;;;;;16.63;3.80;;;10.90;99.90;;;;;;5038936;28;20628;-69
2021/11/07 10:44:22;;;;;;;14.20;2.83;;;10.90;99.90;;;;;;5070241;28;20288;-69
2021/11/07 10:47:13;;;;;;;15.03;3.30;;;10.80;99.90;;;;;;5066186;28;20298;-69
2021/11/07 10:52:37;;;;;;;13.13;3.50;;;10.80;99.90;;;;;;5067922;28;20295;-69
2021/11/07 10:55:05;;;;;;;16.50;4.43;;;10.90;99.90;;;;;;5068218;28;20221;-69
2021/11/07 10:57:33;;;;;;;17.13;3.67;;;10.90;99.90;;;;;;5070679;28;20267;-70
2021/11/07 11:00:27;;;;;;;12.20;2.90;;;11.00;99.90;;;;;;5063659;28;20206;-69
2021/11/07 11:02:55;;;;;;;12.47;2.80;;;10.90;99.90;;;;;;5067643;28;20244;-69
2021/11/07 11:05:26;;;;;;;13.83;3.07;;;11.00;99.90;;;;;;5068872;28;20293;-69
2021/11/07 11:08:07;;;;;;;12.10;3.30;;;11.00;99.90;;;;;;5068219;28;20603;-68
2021/11/07 11:10:48;;;;;;;15.50;2.87;;;11.00;99.90;;;;;;5067800;28;20216;-69
2021/11/07 11:13:32;;;;;;;14.90;3.20;;;11.00;99.90;;;;;;5065796;28;20279;-69
2021/11/07 11:21:51;;;;;;;12.73;3.27;;;11.20;99.90;;;;;;5051231;28;20198;-69
2021/11/07 11:24:38;;;;;;;13.70;2.90;;;11.10;99.90;;;;;;5072370;28;20206;-69
2021/11/07 11:29:58;;;;;;;13.00;3.73;;;11.00;99.90;;;;;;5052626;28;20655;-70
2021/11/07 11:32:32;;;;;;;14.40;3.20;;;10.90;99.90;;;;;;5064666;28;20220;-69
2021/11/07 11:35:04;;;;;;;11.97;3.00;;;10.80;99.90;;;;;;5071143;28;20218;-70
2021/11/07 11:37:40;;;;;;;13.13;2.80;;;10.80;99.90;;;;;;5073622;28;20208;-70
2021/11/07 11:40:14;;;;;;;10.43;3.10;;;10.80;99.90;;;;;;5062665;28;20221;-69
2021/11/07 11:42:47;;;;;;;16.50;3.47;;;10.80;99.90;;;;;;5074365;28;20206;-69
2021/11/07 11:45:17;;;;;;;12.33;3.20;;;10.80;99.90;;;;;;5070767;28;20209;-70
2021/11/07 11:48:04;;;;;;;13.80;3.23;;;10.80;99.90;;;;;;5064011;28;20206;-69
2021/11/07 11:50:54;;;;;;;10.50;3.43;;;10.90;99.90;;;;;;5069285;28;20234;-69
2021/11/07 11:53:37;;;;;;;8.60;3.37;;;11.10;99.90;;;;;;5062009;28;20218;-69
2021/11/07 11:56:26;;;;;;;13.83;3.40;;;11.00;99.90;;;;;;5073247;28;20226;-70
2021/11/07 11:58:57;;;;;;;16.63;4.87;;;11.60;99.90;;;;;;5069052;28;20289;-68
2021/11/07 12:01:28;;;;;;;13.00;3.30;;;12.10;99.90;;;;;;5063747;28;20592;-69
2021/11/07 12:04:13;;;;;;;15.60;2.93;;;13.30;99.90;;;;;;5060538;28;20207;-69
2021/11/07 12:06:52;;;;;;;16.53;3.60;;;13.70;99.90;;;;;;5063179;28;20640;-68
2021/11/07 12:09:39;;;;;;;13.90;3.63;;;13.20;99.90;;;;;;5068436;28;20211;-69
2021/11/07 12:12:12;;;;;;;13.93;3.43;;;13.00;99.90;;;;;;5068068;28;20209;-69
2021/11/07 12:15:06;;;;;;;15.83;3.20;;;13.50;99.90;;;;;;5072788;28;20237;-69
2021/11/07 12:17:35;;;;;;;11.90;3.60;;;14.50;99.90;;;;;;5067015;28;20207;-69
2021/11/07 12:20:23;;;;;;;14.33;3.17;;;14.40;99.90;;;;;;5065762;28;20870;-69
2021/11/07 12:22:51;;;;;;;11.27;2.57;;;14.10;99.90;;;;;;5065499;28;20214;-69
2021/11/07 12:25:20;;;;;;;13.03;3.20;;;14.30;99.90;;;;;;5071753;28;20217;-69
2021/11/07 12:27:51;;;;;;;8.80;2.63;;;14.30;99.90;;;;;;5065214;28;20667;-69
2021/11/07 12:30:26;;;;;;;9.23;2.50;;;14.00;99.90;;;;;;5067031;28;20225;-70
2021/11/07 12:33:04;;;;;;;9.23;2.70;;;13.50;99.90;;;;;;5061250;28;20574;-69
2021/11/07 12:35:38;;;;;;;9.57;2.43;;;13.50;99.90;;;;;;5067903;28;20256;-70
2021/11/07 12:41:06;;;;;;;11.10;2.73;;;13.20;99.90;;;;;;5060093;28;20251;-69
2021/11/07 12:43:39;;;;;;;6.93;2.00;;;13.20;99.90;;;;;;5058716;28;20653;-69
2021/11/07 12:46:48;;;;;;;10.77;3.23;;;13.60;99.90;;;;;;5068776;28;20657;-69
2021/11/07 12:49:27;;;;;;;8.33;2.40;;;13.70;99.90;;;;;;5065168;28;20214;-69
2021/11/07 12:51:56;;;;;;;9.97;2.87;;;13.80;99.90;;;;;;5072157;28;20217;-69
2021/11/07 12:54:30;;;;;;;8.93;2.20;;;14.10;99.90;;;;;;5070550;28;20210;-69
2021/11/07 12:57:02;;;;;;;9.23;2.87;;;14.10;99.90;;;;;;5068725;28;20220;-69
2021/11/07 12:59:35;;;;;;;12.77;3.07;;;14.30;99.90;;;;;;5064531;28;20682;-70
2021/11/07 13:02:23;;;;;;;11.33;2.60;;;14.20;99.90;;;;;;5064349;28;20738;-70
2021/11/07 13:04:58;;;;;;;11.27;2.53;;;14.10;99.90;;;;;;5066733;28;20202;-69
2021/11/07 13:07:31;;;;;;;10.40;2.77;;;14.10;99.90;;;;;;5068194;28;20218;-69
2021/11/07 13:10:02;;;;;;;8.77;2.43;;;14.30;99.90;;;;;;5067571;28;20203;-69
2021/11/07 13:12:35;;;;;;;9.97;2.30;;;14.40;99.90;;;;;;5070232;28;20234;-69
2021/11/07 13:15:25;;;;;;;11.67;3.10;;;14.10;99.90;;;;;;5068167;28;20313;-69
2021/11/07 13:21:00;;;;;;;10.10;2.50;;;12.40;99.90;;;;;;5045252;28;20212;-69
2021/11/07 13:26:27;;;;;;;10.20;2.87;;;12.20;99.90;;;;;;5030144;28;20203;-70
2021/11/07 13:29:08;;;;;;;10.77;2.43;;;12.20;99.90;;;;;;5064966;28;20578;-69
2021/11/07 13:31:45;;;;;;;8.47;2.60;;;12.30;99.90;;;;;;5069002;28;20198;-69
2021/11/07 13:34:17;;;;;;;10.63;2.83;;;12.30;99.90;;;;;;5060920;28;20218;-69
2021/11/07 13:36:46;;;;;;;10.93;2.83;;;12.20;99.90;;;;;;5070550;28;20226;-69
2021/11/07 13:39:21;;;;;;;7.03;2.23;;;12.30;99.90;;;;;;5062769;28;20206;-69
2021/11/07 13:41:53;;;;;;;9.50;2.23;;;12.20;99.90;;;;;;5067019;28;20632;-73
2021/11/07 13:44:25;;;;;;;11.37;3.00;;;12.20;99.90;;;;;;5064219;28;20653;-72
2021/11/07 13:46:54;;;;;;;9.33;2.77;;;12.30;99.90;;;;;;5064806;28;20202;-73
2021/11/07 13:49:22;;;;;;;8.00;2.30;;;12.30;99.90;;;;;;5065442;28;20214;-73
2021/11/07 13:51:54;;;;;;;11.57;2.17;;;12.10;99.90;;;;;;5065207;28;20214;-73
2021/11/07 13:54:22;;;;;;;18.93;3.43;;;12.10;99.90;;;;;;5065599;28;20578;-73
2021/11/07 13:56:52;;;;;;;7.67;2.27;;;12.00;99.90;;;;;;5069865;28;20256;-73
2021/11/07 13:59:33;;;;;;;10.97;2.50;;;11.80;99.90;;;;;;5072108;28;20298;-73
2021/11/07 14:02:01;;;;;;;9.87;2.10;;;11.70;99.90;;;;;;5066813;28;20663;-73
2021/11/07 14:04:43;;;;;;;12.73;2.53;;;11.70;99.90;;;;;;5060635;28;20297;-73
2021/11/07 14:07:19;;;;;;;12.40;2.83;;;11.60;99.90;;;;;;5064856;28;20206;-73